createdAt,value
2017-09-10T00:01:49.051Z,8.91
2017-09-10T00:04:17.406Z,9.03
2017-09-10T00:06:45.776Z,8.99
2017-09-10T00:09:14.227Z,8.98
2017-09-10T00:11:42.595Z,9.02
2017-09-10T00:14:10.942Z,8.90
2017-09-10T00:16:39.305Z,8.70
2017-09-10T00:19:07.660Z,8.75
2017-09-10T00:21:36.036Z,8.62
2017-09-10T00:24:04.391Z,8.81
2017-09-10T00:26:32.731Z,8.86
2017-09-10T00:29:01.077Z,8.69
2017-09-10T00:31:29.422Z,8.58
2017-09-10T00:33:57.808Z,8.73
2017-09-10T00:36:26.148Z,8.62
2017-09-10T00:38:54.522Z,8.68
2017-09-10T00:41:22.869Z,8.65
2017-09-10T00:43:51.232Z,8.67
2017-09-10T00:46:19.617Z,8.65
2017-09-10T00:48:47.960Z,8.60
2017-09-10T00:51:16.313Z,8.88
2017-09-10T00:53:44.695Z,8.63
2017-09-10T00:56:13.053Z,8.52
2017-09-10T00:58:41.391Z,8.32
2017-09-10T01:01:10.007Z,8.15
2017-09-10T01:03:38.359Z,8.27
2017-09-10T01:06:06.727Z,8.24
2017-09-10T01:08:35.074Z,8.28
2017-09-10T01:11:03.544Z,8.29
2017-09-10T01:13:31.899Z,8.24
2017-09-10T01:16:00.248Z,8.22
2017-09-10T01:18:28.631Z,8.13
2017-09-10T01:20:56.980Z,8.10
2017-09-10T01:23:25.438Z,7.89
2017-09-10T01:25:53.966Z,7.81
2017-09-10T01:28:22.329Z,7.83
2017-09-10T01:30:50.668Z,7.95
2017-09-10T01:33:19.016Z,7.78
2017-09-10T01:35:47.368Z,7.64
2017-09-10T01:38:15.706Z,7.62
2017-09-10T01:40:44.064Z,7.54
2017-09-10T01:43:12.441Z,7.84
2017-09-10T01:45:40.785Z,7.70
2017-09-10T01:48:09.132Z,7.84
2017-09-10T01:50:37.473Z,7.85
2017-09-10T01:53:05.827Z,7.86
2017-09-10T01:55:34.282Z,7.74
2017-09-10T01:58:02.639Z,7.69
2017-09-10T02:00:30.984Z,7.43
2017-09-10T02:02:59.378Z,7.22
2017-09-10T02:05:27.711Z,7.02
2017-09-10T02:07:56.056Z,7.12
2017-09-10T02:10:24.399Z,7.36
2017-09-10T02:12:52.796Z,7.25
2017-09-10T02:15:21.151Z,7.29
2017-09-10T02:17:49.501Z,7.35
2017-09-10T02:20:17.865Z,7.28
2017-09-10T02:22:46.235Z,7.16
2017-09-10T02:25:14.593Z,7.18
2017-09-10T02:27:42.942Z,7.43
2017-09-10T02:30:11.892Z,7.35
2017-09-10T02:32:40.408Z,7.22
2017-09-10T02:35:08.750Z,7.18
2017-09-10T02:37:37.106Z,7.21
2017-09-10T02:40:05.486Z,7.23
2017-09-10T02:42:33.838Z,7.44
2017-09-10T02:45:02.251Z,7.30
2017-09-10T02:47:30.595Z,7.15
2017-09-10T02:49:58.934Z,7.26
2017-09-10T02:52:27.333Z,7.10
2017-09-10T02:54:55.712Z,6.93
2017-09-10T02:57:24.066Z,6.95
2017-09-10T02:59:52.433Z,6.85
2017-09-10T03:02:20.789Z,7.00
2017-09-10T03:04:49.126Z,6.80
2017-09-10T03:07:17.475Z,6.78
2017-09-10T03:09:45.908Z,7.00
2017-09-10T03:12:14.271Z,6.99
2017-09-10T03:14:42.626Z,6.90
2017-09-10T03:17:10.972Z,6.79
2017-09-10T03:19:39.318Z,6.82
2017-09-10T03:22:07.711Z,6.74
2017-09-10T03:24:36.072Z,6.55
2017-09-10T03:27:04.416Z,6.47
2017-09-10T03:29:32.759Z,6.36
2017-09-10T03:32:01.123Z,6.29
2017-09-10T03:34:29.498Z,6.25
2017-09-10T03:36:58.117Z,6.31
2017-09-10T03:39:26.459Z,6.33
2017-09-10T03:41:54.806Z,6.63
2017-09-10T03:44:23.149Z,6.36
2017-09-10T03:46:51.522Z,6.55
2017-09-10T03:49:19.869Z,6.62
2017-09-10T03:51:48.274Z,6.54
2017-09-10T03:54:16.622Z,6.31
2017-09-10T03:56:44.972Z,6.29
2017-09-10T03:59:13.324Z,6.31
2017-09-10T04:01:41.811Z,6.41
2017-09-10T04:04:10.175Z,6.44
2017-09-10T04:06:38.522Z,6.42
2017-09-10T04:09:06.873Z,6.42
2017-09-10T04:11:35.224Z,6.37
2017-09-10T04:14:03.608Z,6.27
2017-09-10T04:16:31.944Z,6.43
2017-09-10T04:19:00.291Z,6.76
2017-09-10T04:21:28.644Z,6.73
2017-09-10T04:23:57.023Z,6.56
2017-09-10T04:26:25.431Z,6.37
2017-09-10T04:28:53.836Z,6.39
2017-09-10T04:31:22.182Z,6.24
2017-09-10T04:33:50.523Z,6.36
2017-09-10T04:36:18.894Z,6.56
2017-09-10T04:38:47.242Z,6.75
2017-09-10T04:41:16.281Z,6.89
2017-09-10T04:43:44.627Z,7.03
2017-09-10T04:46:12.971Z,7.12
2017-09-10T04:48:41.351Z,7.21
2017-09-10T04:51:09.696Z,7.52
2017-09-10T04:53:38.044Z,7.70
2017-09-10T04:56:06.419Z,7.67
2017-09-10T04:58:34.775Z,7.66
2017-09-10T05:01:03.149Z,7.77
2017-09-10T05:03:31.491Z,7.80
2017-09-10T05:05:59.971Z,7.91
2017-09-10T05:08:28.317Z,8.04
2017-09-10T05:10:56.690Z,8.00
2017-09-10T05:13:25.052Z,7.88
2017-09-10T05:15:53.398Z,7.94
2017-09-10T05:18:21.743Z,8.11
2017-09-10T05:20:50.090Z,8.05
2017-09-10T05:23:18.465Z,8.01
2017-09-10T05:25:46.808Z,7.99
2017-09-10T05:28:15.187Z,7.96
2017-09-10T05:30:43.534Z,8.07
2017-09-10T05:33:11.911Z,8.12
2017-09-10T05:35:40.274Z,8.20
2017-09-10T05:38:08.748Z,8.35
2017-09-10T05:40:37.097Z,8.23
2017-09-10T05:43:05.443Z,8.28
2017-09-10T05:45:33.786Z,8.30
2017-09-10T05:48:02.118Z,8.30
2017-09-10T05:50:30.602Z,8.36
2017-09-10T05:52:58.963Z,8.48
2017-09-10T05:55:27.363Z,8.74
2017-09-10T05:57:55.726Z,8.75
2017-09-10T06:00:24.094Z,8.77
2017-09-10T06:02:52.439Z,8.70
2017-09-10T06:05:20.815Z,8.87
2017-09-10T06:07:49.193Z,8.94
2017-09-10T06:10:17.552Z,9.09
2017-09-10T06:12:45.890Z,9.17
2017-09-10T06:15:14.245Z,9.24
2017-09-10T06:17:42.589Z,9.23
2017-09-10T06:20:11.128Z,9.60
2017-09-10T06:22:39.499Z,9.75
2017-09-10T06:25:07.872Z,9.98
2017-09-10T06:27:36.216Z,10.38
2017-09-10T06:30:04.573Z,10.86
2017-09-10T06:32:32.924Z,11.55
2017-09-10T06:35:01.274Z,13.41
2017-09-10T06:37:29.633Z,14.68
2017-09-10T06:39:57.979Z,14.58
2017-09-10T06:42:26.310Z,14.93
2017-09-10T06:44:54.652Z,15.83
2017-09-10T06:47:23.025Z,15.00
2017-09-10T06:49:51.364Z,14.04
2017-09-10T06:52:19.742Z,13.00
2017-09-10T06:54:48.071Z,12.57
2017-09-10T06:57:16.427Z,12.83
2017-09-10T06:59:44.772Z,12.92
2017-09-10T07:02:13.110Z,13.15
2017-09-10T07:04:41.463Z,13.60
2017-09-10T07:07:09.810Z,14.08
2017-09-10T07:09:38.148Z,13.91
2017-09-10T07:12:06.492Z,13.38
2017-09-10T07:14:34.867Z,13.15
2017-09-10T07:17:03.210Z,13.32
2017-09-10T07:19:31.574Z,13.20
2017-09-10T07:22:00.327Z,13.05
2017-09-10T07:24:28.685Z,13.06
2017-09-10T07:26:57.017Z,13.35
2017-09-10T07:29:25.348Z,13.88
2017-09-10T07:31:53.714Z,13.89
2017-09-10T07:34:22.061Z,14.94
2017-09-10T07:36:50.631Z,15.03
2017-09-10T07:39:18.966Z,15.03
2017-09-10T07:41:47.323Z,14.29
2017-09-10T07:44:15.661Z,13.42
2017-09-10T07:46:44.022Z,13.97
2017-09-10T07:49:12.391Z,14.44
2017-09-10T07:51:40.738Z,15.33
2017-09-10T07:54:09.075Z,15.73
2017-09-10T07:56:37.459Z,16.27
2017-09-10T07:59:05.806Z,15.92
2017-09-10T08:01:34.184Z,15.70
2017-09-10T08:04:02.854Z,14.78
2017-09-10T08:06:31.183Z,15.54
2017-09-10T08:08:59.535Z,16.87
2017-09-10T08:11:27.874Z,17.77
2017-09-10T08:13:56.242Z,18.04
2017-09-10T08:16:24.583Z,18.40
2017-09-10T08:18:52.928Z,19.12
2017-09-10T08:21:21.304Z,18.98
2017-09-10T08:23:49.642Z,20.41
2017-09-10T08:26:17.979Z,21.16
2017-09-10T08:28:46.327Z,21.18
2017-09-10T08:31:14.672Z,21.31
2017-09-10T08:33:43.022Z,21.20
2017-09-10T08:36:11.372Z,21.29
2017-09-10T08:38:39.847Z,21.45
2017-09-10T08:41:08.188Z,21.41
2017-09-10T08:43:36.530Z,21.41
2017-09-10T08:46:04.885Z,21.46
2017-09-10T08:48:33.223Z,21.23
2017-09-10T08:51:01.562Z,21.06
2017-09-10T08:53:29.910Z,20.43
2017-09-10T08:55:58.278Z,20.86
2017-09-10T08:58:26.622Z,20.65
2017-09-10T09:00:54.964Z,22.21
2017-09-10T09:03:23.438Z,22.53
2017-09-10T09:05:51.771Z,21.30
2017-09-10T09:08:20.115Z,21.34
2017-09-10T09:10:48.453Z,21.60
2017-09-10T09:13:16.839Z,21.52
2017-09-10T09:15:45.173Z,21.69
2017-09-10T09:18:14.367Z,22.26
2017-09-10T09:20:42.715Z,22.33
2017-09-10T09:23:11.092Z,21.47
2017-09-10T09:25:39.454Z,20.81
2017-09-10T09:28:07.797Z,21.72
2017-09-10T09:30:36.136Z,21.71
2017-09-10T09:33:04.475Z,21.70
2017-09-10T09:35:32.816Z,21.55
2017-09-10T09:38:01.159Z,21.52
2017-09-10T09:40:29.499Z,21.32
2017-09-10T09:42:57.918Z,21.03
2017-09-10T09:45:26.254Z,21.52
2017-09-10T09:47:54.591Z,22.08
2017-09-10T09:50:22.937Z,21.36
2017-09-10T09:52:51.326Z,21.73
2017-09-10T09:55:19.654Z,21.58
2017-09-10T09:57:48.000Z,21.18
2017-09-10T10:00:16.347Z,21.80
2017-09-10T10:02:44.696Z,22.36
2017-09-10T10:05:13.040Z,22.63
2017-09-10T10:07:41.383Z,22.82
2017-09-10T10:10:09.731Z,23.79
2017-09-10T10:12:38.101Z,23.48
2017-09-10T10:15:06.439Z,23.24
2017-09-10T10:17:34.782Z,23.10
2017-09-10T10:20:03.311Z,22.55
2017-09-10T10:22:31.647Z,23.01
2017-09-10T10:25:00.040Z,23.65
2017-09-10T10:27:28.383Z,21.97
2017-09-10T10:29:56.721Z,21.08
2017-09-10T10:32:25.075Z,21.74
2017-09-10T10:34:53.465Z,22.18
2017-09-10T10:37:21.831Z,22.76
2017-09-10T10:39:50.684Z,23.15
2017-09-10T10:42:19.699Z,23.31
2017-09-10T10:44:48.113Z,23.94
2017-09-10T10:47:16.451Z,23.46
2017-09-10T10:49:44.826Z,22.96
2017-09-10T10:52:13.194Z,21.34
2017-09-10T10:54:41.577Z,19.83
2017-09-10T10:57:09.918Z,20.47
2017-09-10T10:59:38.263Z,20.17
2017-09-10T11:02:06.635Z,19.17
2017-09-10T11:04:34.979Z,19.34
2017-09-10T11:07:03.481Z,18.99
2017-09-10T11:09:31.808Z,18.59
2017-09-10T11:12:00.149Z,17.47
2017-09-10T11:14:28.640Z,17.26
2017-09-10T11:16:56.980Z,17.47
2017-09-10T11:19:25.362Z,17.04
2017-09-10T11:21:53.741Z,18.08
2017-09-10T11:24:22.073Z,17.14
2017-09-10T11:26:50.415Z,16.57
2017-09-10T11:29:18.794Z,16.10
2017-09-10T11:31:47.137Z,15.82
2017-09-10T11:34:15.502Z,16.10
2017-09-10T11:36:43.836Z,16.18
2017-09-10T11:39:12.201Z,17.24
2017-09-10T11:41:40.575Z,17.98
2017-09-10T11:44:13.438Z,18.06
2017-09-10T11:46:41.916Z,19.18
2017-09-10T11:49:10.271Z,20.22
2017-09-10T11:51:38.622Z,20.33
2017-09-10T11:54:06.962Z,19.35
2017-09-10T11:56:35.301Z,17.92
2017-09-10T11:59:03.673Z,17.06
2017-09-10T12:01:32.009Z,16.78
2017-09-10T12:04:00.346Z,16.53
2017-09-10T12:06:29.106Z,16.66
2017-09-10T12:08:57.842Z,16.92
2017-09-10T12:11:26.443Z,16.76
2017-09-10T12:13:54.788Z,17.33
2017-09-10T12:16:23.150Z,16.93
2017-09-10T12:18:51.515Z,16.82
2017-09-10T12:21:25.811Z,16.59
2017-09-10T12:23:54.185Z,16.81
2017-09-10T12:26:22.526Z,16.53
2017-09-10T12:28:50.882Z,16.74
2017-09-10T12:31:19.226Z,15.81
2017-09-10T12:33:47.568Z,15.61
2017-09-10T12:36:15.902Z,15.51
2017-09-10T12:38:44.247Z,15.47
2017-09-10T12:41:12.738Z,15.73
2017-09-10T12:43:41.093Z,15.97
2017-09-10T12:46:09.435Z,16.35
2017-09-10T12:48:37.776Z,16.36
2017-09-10T12:51:06.129Z,16.24
2017-09-10T12:53:34.499Z,16.38
2017-09-10T12:56:08.556Z,16.32
2017-09-10T12:58:36.928Z,16.47
2017-09-10T13:01:05.275Z,16.53
2017-09-10T13:03:33.615Z,15.90
2017-09-10T13:06:01.996Z,15.76
2017-09-10T13:08:31.078Z,15.33
2017-09-10T13:10:59.471Z,15.44
2017-09-10T13:13:27.816Z,15.70
2017-09-10T13:15:56.185Z,16.31
2017-09-10T13:18:24.656Z,16.80
2017-09-10T13:20:53.014Z,17.30
2017-09-10T13:23:21.388Z,17.16
2017-09-10T13:25:49.757Z,17.00
2017-09-10T13:28:18.096Z,17.04
2017-09-10T13:30:46.473Z,16.84
2017-09-10T13:33:14.847Z,16.30
2017-09-10T13:35:43.222Z,16.59
2017-09-10T13:38:11.576Z,16.91
2017-09-10T13:40:39.976Z,16.70
2017-09-10T13:43:08.331Z,16.20
2017-09-10T13:45:36.690Z,16.22
2017-09-10T13:48:05.101Z,16.11
2017-09-10T13:50:33.448Z,16.35
2017-09-10T13:53:01.903Z,16.48
2017-09-10T13:55:30.257Z,16.40
2017-09-10T13:57:58.594Z,16.32
2017-09-10T14:00:26.961Z,16.20
2017-09-10T14:02:55.324Z,15.91
2017-09-10T14:05:23.679Z,15.78
2017-09-10T14:07:52.066Z,16.10
2017-09-10T14:10:20.508Z,16.07
2017-09-10T14:12:48.867Z,15.95
2017-09-10T14:15:17.203Z,16.26
2017-09-10T14:17:45.596Z,16.40
2017-09-10T14:20:13.927Z,16.13
2017-09-10T14:22:42.306Z,16.08
2017-09-10T14:25:10.646Z,15.93
2017-09-10T14:27:39.101Z,15.85
2017-09-10T14:30:07.483Z,15.50
2017-09-10T14:32:35.814Z,15.50
2017-09-10T14:35:04.181Z,15.62
2017-09-10T14:37:32.533Z,15.65
2017-09-10T14:40:00.953Z,15.73
2017-09-10T14:42:29.330Z,15.78
2017-09-10T14:44:57.694Z,15.76
2017-09-10T14:47:26.023Z,15.40
2017-09-10T14:49:54.384Z,15.66
2017-09-10T14:52:22.795Z,15.82
2017-09-10T14:54:51.126Z,15.73
2017-09-10T14:57:19.478Z,15.78
2017-09-10T14:59:47.806Z,15.57
2017-09-10T15:02:16.295Z,15.51
2017-09-10T15:04:44.750Z,15.43
2017-09-10T15:07:13.082Z,15.29
2017-09-10T15:09:41.426Z,14.98
2017-09-10T15:12:09.782Z,15.15
2017-09-10T15:14:38.114Z,15.35
2017-09-10T15:17:06.506Z,15.17
2017-09-10T15:19:34.978Z,15.13
2017-09-10T15:22:03.318Z,14.90
2017-09-10T15:24:31.658Z,14.70
2017-09-10T15:27:00.169Z,14.50
2017-09-10T15:29:28.502Z,14.47
2017-09-10T15:31:56.853Z,14.37
2017-09-10T15:34:25.250Z,14.37
2017-09-10T15:36:53.582Z,14.40
2017-09-10T15:39:22.026Z,14.25
2017-09-10T15:41:50.354Z,14.31
2017-09-10T15:44:18.694Z,14.33
2017-09-10T15:46:47.102Z,14.35
2017-09-10T15:49:15.438Z,14.44
2017-09-10T15:51:43.798Z,14.52
2017-09-10T15:54:12.142Z,14.65
2017-09-10T15:56:40.491Z,14.78
2017-09-10T15:59:08.825Z,14.81
2017-09-10T16:01:37.162Z,14.81
2017-09-10T16:04:05.526Z,14.55
2017-09-10T16:06:33.923Z,14.42
2017-09-10T16:09:02.362Z,14.45
2017-09-10T16:11:30.694Z,14.41
2017-09-10T16:13:59.078Z,14.26
2017-09-10T16:16:27.415Z,14.31
2017-09-10T16:18:55.751Z,14.43
2017-09-10T16:21:24.111Z,14.49
2017-09-10T16:23:52.443Z,14.39
2017-09-10T16:26:20.843Z,14.32
2017-09-10T16:28:49.184Z,14.16
2017-09-10T16:31:17.538Z,14.12
2017-09-10T16:33:45.871Z,14.14
2017-09-10T16:36:14.238Z,13.98
2017-09-10T16:38:42.614Z,13.86
2017-09-10T16:41:11.007Z,13.93
2017-09-10T16:43:39.326Z,13.80
2017-09-10T16:46:07.878Z,13.72
2017-09-10T16:48:36.898Z,13.59
2017-09-10T16:51:05.303Z,13.62
2017-09-10T16:53:33.632Z,13.45
2017-09-10T16:56:02.293Z,13.53
2017-09-10T16:58:30.662Z,13.30
2017-09-10T17:00:58.994Z,13.23
2017-09-10T17:03:27.794Z,13.15
2017-09-10T17:05:56.125Z,13.01
2017-09-10T17:08:24.457Z,12.88
2017-09-10T17:10:52.791Z,12.75
2017-09-10T17:13:21.122Z,12.75
2017-09-10T17:15:49.475Z,12.72
2017-09-10T17:18:17.814Z,12.68
2017-09-10T17:20:46.147Z,12.72
2017-09-10T17:23:14.482Z,12.61
2017-09-10T17:25:42.853Z,12.63
2017-09-10T17:28:11.230Z,12.48
2017-09-10T17:30:39.666Z,12.48
2017-09-10T17:33:08.026Z,12.38
2017-09-10T17:35:36.390Z,12.29
2017-09-10T17:38:04.738Z,12.39
2017-09-10T17:40:33.095Z,12.37
2017-09-10T17:43:01.799Z,12.32
2017-09-10T17:45:30.154Z,12.24
2017-09-10T17:47:58.486Z,12.11
2017-09-10T17:50:26.854Z,12.20
2017-09-10T17:52:55.186Z,12.07
2017-09-10T17:55:23.547Z,12.11
2017-09-10T17:57:51.973Z,12.10
2017-09-10T18:00:20.361Z,12.08
2017-09-10T18:02:48.820Z,12.10
2017-09-10T18:05:17.219Z,12.07
2017-09-10T18:07:45.542Z,12.08
2017-09-10T18:10:13.882Z,12.03
2017-09-10T18:12:42.263Z,11.91
2017-09-10T18:15:10.610Z,11.82
2017-09-10T18:17:38.938Z,11.73
2017-09-10T18:20:07.270Z,11.70
2017-09-10T18:22:35.607Z,11.73
2017-09-10T18:25:03.968Z,11.76
2017-09-10T18:27:32.334Z,11.64
2017-09-10T18:30:00.727Z,11.56
2017-09-10T18:32:29.098Z,11.43
2017-09-10T18:34:57.430Z,11.48
2017-09-10T18:37:26.057Z,11.46
2017-09-10T18:39:54.414Z,11.38
2017-09-10T18:42:22.779Z,11.41
2017-09-10T18:44:51.134Z,11.41
2017-09-10T18:47:19.475Z,11.39
2017-09-10T18:49:47.846Z,11.45
2017-09-10T18:52:16.170Z,11.35
2017-09-10T18:54:44.530Z,11.26
2017-09-10T18:57:12.906Z,11.42
2017-09-10T18:59:41.283Z,11.37
2017-09-10T19:02:09.610Z,11.37
2017-09-10T19:04:37.958Z,11.45
2017-09-10T19:07:06.293Z,11.37
2017-09-10T19:09:34.662Z,11.29
2017-09-10T19:12:03.199Z,11.30
2017-09-10T19:14:31.766Z,11.29
2017-09-10T19:17:00.099Z,11.37
2017-09-10T19:19:28.438Z,11.40
2017-09-10T19:21:56.831Z,11.39
2017-09-10T19:24:25.174Z,11.38
2017-09-10T19:26:53.514Z,11.32
2017-09-10T19:29:21.881Z,11.31
2017-09-10T19:31:50.219Z,11.31
2017-09-10T19:34:18.590Z,11.32
2017-09-10T19:36:46.930Z,11.42
2017-09-10T19:39:15.262Z,11.36
2017-09-10T19:41:43.646Z,11.36
2017-09-10T19:44:11.999Z,11.40
2017-09-10T19:46:40.363Z,11.40
2017-09-10T19:49:08.688Z,11.39
2017-09-10T19:51:37.042Z,11.38
2017-09-10T19:54:05.378Z,11.45
2017-09-10T19:56:33.715Z,11.52
2017-09-10T19:59:02.246Z,11.44
2017-09-10T20:01:30.907Z,11.45
2017-09-10T20:04:00.482Z,11.44
2017-09-10T20:06:30.022Z,11.33
2017-09-10T20:08:58.341Z,11.36
2017-09-10T20:11:26.687Z,11.37
2017-09-10T20:13:55.096Z,11.34
2017-09-10T20:16:23.497Z,11.32
2017-09-10T20:18:51.838Z,11.30
2017-09-10T20:21:20.316Z,11.31
2017-09-10T20:23:48.871Z,11.31
2017-09-10T20:26:17.205Z,11.19
2017-09-10T20:28:45.579Z,11.17
2017-09-10T20:31:13.943Z,11.00
2017-09-10T20:33:42.350Z,11.06
2017-09-10T20:36:10.815Z,10.99
2017-09-10T20:38:39.206Z,11.01
2017-09-10T20:41:07.746Z,11.08
2017-09-10T20:43:36.080Z,11.07
2017-09-10T20:46:04.412Z,11.05
2017-09-10T20:48:32.774Z,11.03
2017-09-10T20:51:01.106Z,11.13
2017-09-10T20:53:29.863Z,11.13
2017-09-10T20:55:58.274Z,11.14
2017-09-10T20:58:26.655Z,11.09
2017-09-10T21:00:55.054Z,11.18
2017-09-10T21:03:23.443Z,11.17
2017-09-10T21:05:51.860Z,11.11
2017-09-10T21:08:20.188Z,11.13
2017-09-10T21:10:48.564Z,11.14
2017-09-10T21:13:16.894Z,11.14
2017-09-10T21:15:45.262Z,11.15
2017-09-10T21:18:13.631Z,11.18
2017-09-10T21:20:41.991Z,11.21
2017-09-10T21:23:10.318Z,11.26
2017-09-10T21:25:38.654Z,11.23
2017-09-10T21:28:06.982Z,11.28
2017-09-10T21:30:35.316Z,11.33
2017-09-10T21:33:03.750Z,11.31
2017-09-10T21:35:32.085Z,11.30
2017-09-10T21:38:00.626Z,11.27
2017-09-10T21:40:28.949Z,11.32
2017-09-10T21:42:57.390Z,11.25
2017-09-10T21:45:25.746Z,11.30
2017-09-10T21:47:54.170Z,11.27
2017-09-10T21:50:22.539Z,11.26
2017-09-10T21:52:50.950Z,11.24
2017-09-10T21:55:19.301Z,11.27
2017-09-10T21:57:47.629Z,11.24
2017-09-10T22:00:15.962Z,11.25
2017-09-10T22:02:44.318Z,11.25
2017-09-10T22:05:12.655Z,11.21
2017-09-10T22:07:40.991Z,11.20
2017-09-10T22:10:09.390Z,11.20
2017-09-10T22:12:37.754Z,11.21
2017-09-10T22:15:06.114Z,11.19
2017-09-10T22:17:34.450Z,11.21
2017-09-10T22:20:02.780Z,11.19
2017-09-10T22:22:31.138Z,11.18
2017-09-10T22:24:59.531Z,11.15
2017-09-10T22:27:27.918Z,11.16
2017-09-10T22:29:56.254Z,11.16
2017-09-10T22:32:24.603Z,11.14
2017-09-10T22:34:52.933Z,11.13
2017-09-10T22:37:21.286Z,11.13
2017-09-10T22:39:49.705Z,11.06
2017-09-10T22:42:18.070Z,11.05
2017-09-10T22:44:46.397Z,11.06
2017-09-10T22:47:14.759Z,11.08
2017-09-10T22:49:43.086Z,11.07
2017-09-10T22:52:11.421Z,11.00
2017-09-10T22:54:39.752Z,11.06
2017-09-10T22:57:08.211Z,11.09
2017-09-10T22:59:39.883Z,11.08
2017-09-10T23:02:08.243Z,11.03
2017-09-10T23:04:36.573Z,11.04
2017-09-10T23:07:04.959Z,11.08
2017-09-10T23:09:33.391Z,11.06
2017-09-10T23:12:01.716Z,11.02
2017-09-10T23:14:30.046Z,11.03
2017-09-10T23:16:58.379Z,11.01
2017-09-10T23:19:26.709Z,11.00
2017-09-10T23:21:55.045Z,11.10
2017-09-10T23:24:23.494Z,11.09
2017-09-10T23:26:51.846Z,11.02
2017-09-10T23:29:20.178Z,10.98
2017-09-10T23:31:48.578Z,11.01
2017-09-10T23:34:16.913Z,11.04
2017-09-10T23:36:45.304Z,11.01
2017-09-10T23:39:13.635Z,11.02
2017-09-10T23:41:42.026Z,11.00
2017-09-10T23:44:10.448Z,11.05
2017-09-10T23:46:38.770Z,11.05
2017-09-10T23:49:07.104Z,11.02
2017-09-10T23:51:35.442Z,11.02
2017-09-10T23:54:03.910Z,11.03
2017-09-10T23:56:32.229Z,10.96
2017-09-10T23:59:00.596Z,11.02
